sensor_id;sensor_type;location;lat;lon;timestamp;temperature;humidity
77056;SHT30;67471;44.918;8.614;2024-03-08T00:03:03;9.92;73.09
77056;SHT30;67471;44.918;8.614;2024-03-08T00:06:07;9.87;73.30
77056;SHT30;67471;44.918;8.614;2024-03-08T00:09:10;9.82;73.48
77056;SHT30;67471;44.918;8.614;2024-03-08T00:12:14;9.76;73.58
77056;SHT30;67471;44.918;8.614;2024-03-08T00:15:18;9.75;73.63
77056;SHT30;67471;44.918;8.614;2024-03-08T00:18:22;9.61;73.96
77056;SHT30;67471;44.918;8.614;2024-03-08T00:21:25;9.61;73.90
77056;SHT30;67471;44.918;8.614;2024-03-08T00:24:30;9.52;73.44
77056;SHT30;67471;44.918;8.614;2024-03-08T00:27:34;9.36;73.82
77056;SHT30;67471;44.918;8.614;2024-03-08T00:30:38;9.51;73.23
77056;SHT30;67471;44.918;8.614;2024-03-08T00:33:43;9.55;73.30
77056;SHT30;67471;44.918;8.614;2024-03-08T00:36:47;9.49;73.66
77056;SHT30;67471;44.918;8.614;2024-03-08T00:39:52;9.36;74.00
77056;SHT30;67471;44.918;8.614;2024-03-08T00:42:56;9.39;74.09
77056;SHT30;67471;44.918;8.614;2024-03-08T00:46:00;9.28;74.51
77056;SHT30;67471;44.918;8.614;2024-03-08T00:49:04;9.31;74.29
77056;SHT30;67471;44.918;8.614;2024-03-08T00:52:09;9.28;74.32
77056;SHT30;67471;44.918;8.614;2024-03-08T00:55:12;9.25;74.24
77056;SHT30;67471;44.918;8.614;2024-03-08T00:58:16;9.17;74.33
77056;SHT30;67471;44.918;8.614;2024-03-08T01:01:21;9.25;73.89
77056;SHT30;67471;44.918;8.614;2024-03-08T01:04:24;9.08;74.76
77056;SHT30;67471;44.918;8.614;2024-03-08T01:07:29;9.15;74.22
77056;SHT30;67471;44.918;8.614;2024-03-08T01:10:33;9.14;74.26
77056;SHT30;67471;44.918;8.614;2024-03-08T01:13:36;9.03;74.45
77056;SHT30;67471;44.918;8.614;2024-03-08T01:16:40;9.04;74.90
77056;SHT30;67471;44.918;8.614;2024-03-08T01:19:44;8.97;75.07
77056;SHT30;67471;44.918;8.614;2024-03-08T01:22:48;8.88;75.69
77056;SHT30;67471;44.918;8.614;2024-03-08T01:25:52;8.91;75.65
77056;SHT30;67471;44.918;8.614;2024-03-08T01:29:00;8.94;75.66
77056;SHT30;67471;44.918;8.614;2024-03-08T01:32:06;8.90;75.65
77056;SHT30;67471;44.918;8.614;2024-03-08T01:35:10;9.00;75.37
77056;SHT30;67471;44.918;8.614;2024-03-08T01:38:14;9.05;74.59
77056;SHT30;67471;44.918;8.614;2024-03-08T01:41:18;8.73;76.02
77056;SHT30;67471;44.918;8.614;2024-03-08T01:44:21;8.66;75.57
77056;SHT30;67471;44.918;8.614;2024-03-08T01:47:25;8.59;75.57
77056;SHT30;67471;44.918;8.614;2024-03-08T01:50:29;8.46;75.86
77056;SHT30;67471;44.918;8.614;2024-03-08T01:53:34;8.38;76.12
77056;SHT30;67471;44.918;8.614;2024-03-08T01:56:38;8.43;76.01
77056;SHT30;67471;44.918;8.614;2024-03-08T01:59:42;8.35;76.04
77056;SHT30;67471;44.918;8.614;2024-03-08T02:02:46;8.25;76.33
77056;SHT30;67471;44.918;8.614;2024-03-08T02:05:50;8.22;76.83
77056;SHT30;67471;44.918;8.614;2024-03-08T02:08:54;8.25;76.71
77056;SHT30;67471;44.918;8.614;2024-03-08T02:11:58;8.26;76.68
77056;SHT30;67471;44.918;8.614;2024-03-08T02:15:07;8.28;76.48
77056;SHT30;67471;44.918;8.614;2024-03-08T02:18:11;7.88;77.45
77056;SHT30;67471;44.918;8.614;2024-03-08T02:21:17;7.77;78.42
77056;SHT30;67471;44.918;8.614;2024-03-08T02:24:21;7.66;78.30
77056;SHT30;67471;44.918;8.614;2024-03-08T02:27:27;7.56;78.49
77056;SHT30;67471;44.918;8.614;2024-03-08T02:30:33;7.71;78.50
77056;SHT30;67471;44.918;8.614;2024-03-08T02:33:37;7.32;79.23
77056;SHT30;67471;44.918;8.614;2024-03-08T02:36:41;7.24;79.71
77056;SHT30;67471;44.918;8.614;2024-03-08T02:39:45;7.20;79.83
77056;SHT30;67471;44.918;8.614;2024-03-08T02:42:49;6.85;81.51
77056;SHT30;67471;44.918;8.614;2024-03-08T02:45:53;6.40;83.01
77056;SHT30;67471;44.918;8.614;2024-03-08T02:48:56;6.31;83.34
77056;SHT30;67471;44.918;8.614;2024-03-08T02:52:00;6.30;83.61
77056;SHT30;67471;44.918;8.614;2024-03-08T02:55:05;6.50;82.53
77056;SHT30;67471;44.918;8.614;2024-03-08T02:58:09;6.29;83.51
77056;SHT30;67471;44.918;8.614;2024-03-08T03:01:14;6.24;82.97
77056;SHT30;67471;44.918;8.614;2024-03-08T03:04:19;6.13;83.42
77056;SHT30;67471;44.918;8.614;2024-03-08T03:07:22;6.20;83.58
77056;SHT30;67471;44.918;8.614;2024-03-08T03:10:26;6.37;82.63
77056;SHT30;67471;44.918;8.614;2024-03-08T03:13:30;6.47;82.58
77056;SHT30;67471;44.918;8.614;2024-03-08T03:16:33;6.65;81.85
77056;SHT30;67471;44.918;8.614;2024-03-08T03:19:40;6.98;80.75
77056;SHT30;67471;44.918;8.614;2024-03-08T03:22:46;7.12;80.03
77056;SHT30;67471;44.918;8.614;2024-03-08T03:25:54;7.30;79.18
77056;SHT30;67471;44.918;8.614;2024-03-08T03:29:00;7.40;78.45
77056;SHT30;67471;44.918;8.614;2024-03-08T03:32:06;7.53;78.01
77056;SHT30;67471;44.918;8.614;2024-03-08T03:35:11;7.61;77.42
77056;SHT30;67471;44.918;8.614;2024-03-08T03:38:15;7.61;77.18
77056;SHT30;67471;44.918;8.614;2024-03-08T03:41:19;7.69;77.12
77056;SHT30;67471;44.918;8.614;2024-03-08T03:44:22;7.60;77.25
77056;SHT30;67471;44.918;8.614;2024-03-08T03:47:27;7.60;77.79
77056;SHT30;67471;44.918;8.614;2024-03-08T03:50:31;7.69;77.03
77056;SHT30;67471;44.918;8.614;2024-03-08T03:53:37;7.61;77.78
77056;SHT30;67471;44.918;8.614;2024-03-08T03:56:41;7.64;77.43
77056;SHT30;67471;44.918;8.614;2024-03-08T03:59:45;7.60;76.84
77056;SHT30;67471;44.918;8.614;2024-03-08T04:02:51;7.43;76.57
77056;SHT30;67471;44.918;8.614;2024-03-08T04:05:55;7.34;76.70
77056;SHT30;67471;44.918;8.614;2024-03-08T04:08:58;7.32;75.96
77056;SHT30;67471;44.918;8.614;2024-03-08T04:12:02;7.20;76.90
77056;SHT30;67471;44.918;8.614;2024-03-08T04:15:06;7.16;77.37
77056;SHT30;67471;44.918;8.614;2024-03-08T04:18:10;6.99;77.67
77056;SHT30;67471;44.918;8.614;2024-03-08T04:21:14;7.16;77.31
77056;SHT30;67471;44.918;8.614;2024-03-08T04:24:18;6.98;78.18
77056;SHT30;67471;44.918;8.614;2024-03-08T04:27:21;6.99;78.49
77056;SHT30;67471;44.918;8.614;2024-03-08T04:30:25;6.98;78.71
77056;SHT30;67471;44.918;8.614;2024-03-08T04:33:31;6.92;78.94
77056;SHT30;67471;44.918;8.614;2024-03-08T04:36:35;7.05;78.04
77056;SHT30;67471;44.918;8.614;2024-03-08T04:39:38;7.03;78.64
77056;SHT30;67471;44.918;8.614;2024-03-08T04:42:42;7.09;78.82
77056;SHT30;67471;44.918;8.614;2024-03-08T04:45:46;7.12;78.55
77056;SHT30;67471;44.918;8.614;2024-03-08T04:48:50;7.06;78.36
77056;SHT30;67471;44.918;8.614;2024-03-08T04:51:53;7.08;78.24
77056;SHT30;67471;44.918;8.614;2024-03-08T04:54:57;7.09;78.03
77056;SHT30;67471;44.918;8.614;2024-03-08T04:58:01;7.03;78.14
77056;SHT30;67471;44.918;8.614;2024-03-08T05:01:05;6.93;78.03
77056;SHT30;67471;44.918;8.614;2024-03-08T05:04:08;6.99;77.78
77056;SHT30;67471;44.918;8.614;2024-03-08T05:07:12;6.96;77.87
77056;SHT30;67471;44.918;8.614;2024-03-08T05:10:16;6.87;77.67
77056;SHT30;67471;44.918;8.614;2024-03-08T05:13:22;6.68;78.53
77056;SHT30;67471;44.918;8.614;2024-03-08T05:16:26;6.74;78.65
77056;SHT30;67471;44.918;8.614;2024-03-08T05:19:30;6.71;78.35
77056;SHT30;67471;44.918;8.614;2024-03-08T05:22:34;6.57;79.47
77056;SHT30;67471;44.918;8.614;2024-03-08T05:25:39;6.60;79.39
77056;SHT30;67471;44.918;8.614;2024-03-08T05:28:42;6.57;79.44
77056;SHT30;67471;44.918;8.614;2024-03-08T05:31:50;6.58;80.07
77056;SHT30;67471;44.918;8.614;2024-03-08T05:34:55;6.57;79.74
77056;SHT30;67471;44.918;8.614;2024-03-08T05:37:59;6.57;79.37
77056;SHT30;67471;44.918;8.614;2024-03-08T05:41:02;6.64;79.17
77056;SHT30;67471;44.918;8.614;2024-03-08T05:44:07;6.60;79.64
77056;SHT30;67471;44.918;8.614;2024-03-08T05:47:11;6.65;79.59
77056;SHT30;67471;44.918;8.614;2024-03-08T05:50:14;6.52;79.65
77056;SHT30;67471;44.918;8.614;2024-03-08T05:53:19;6.54;79.54
77056;SHT30;67471;44.918;8.614;2024-03-08T05:56:23;6.52;80.05
77056;SHT30;67471;44.918;8.614;2024-03-08T05:59:27;6.65;79.87
77056;SHT30;67471;44.918;8.614;2024-03-08T06:02:31;6.63;79.89
77056;SHT30;67471;44.918;8.614;2024-03-08T06:05:35;6.65;80.06
77056;SHT30;67471;44.918;8.614;2024-03-08T06:08:39;6.74;79.53
77056;SHT30;67471;44.918;8.614;2024-03-08T06:11:43;6.71;79.89
77056;SHT30;67471;44.918;8.614;2024-03-08T06:14:47;6.77;79.74
77056;SHT30;67471;44.918;8.614;2024-03-08T06:17:51;6.84;79.20
77056;SHT30;67471;44.918;8.614;2024-03-08T06:20:56;6.79;79.54
77056;SHT30;67471;44.918;8.614;2024-03-08T06:24:00;6.96;79.28
77056;SHT30;67471;44.918;8.614;2024-03-08T06:27:04;7.06;79.05
77056;SHT30;67471;44.918;8.614;2024-03-08T06:30:09;7.10;78.61
77056;SHT30;67471;44.918;8.614;2024-03-08T06:33:13;7.24;77.56
77056;SHT30;67471;44.918;8.614;2024-03-08T06:36:17;7.20;78.09
77056;SHT30;67471;44.918;8.614;2024-03-08T06:39:25;7.20;77.79
77056;SHT30;67471;44.918;8.614;2024-03-08T06:42:29;7.32;77.28
77056;SHT30;67471;44.918;8.614;2024-03-08T06:45:33;7.39;76.81
77056;SHT30;67471;44.918;8.614;2024-03-08T06:48:37;7.40;76.36
77056;SHT30;67471;44.918;8.614;2024-03-08T06:51:41;7.51;75.97
77056;SHT30;67471;44.918;8.614;2024-03-08T06:54:44;7.44;76.01
77056;SHT30;67471;44.918;8.614;2024-03-08T06:57:48;7.56;75.83
77056;SHT30;67471;44.918;8.614;2024-03-08T07:00:53;8.21;74.44
77056;SHT30;67471;44.918;8.614;2024-03-08T07:03:56;8.69;72.03
77056;SHT30;67471;44.918;8.614;2024-03-08T07:07:00;8.63;71.70
77056;SHT30;67471;44.918;8.614;2024-03-08T07:10:06;10.40;68.65
77056;SHT30;67471;44.918;8.614;2024-03-08T07:13:14;13.32;59.21
77056;SHT30;67471;44.918;8.614;2024-03-08T07:16:18;14.77;53.79
77056;SHT30;67471;44.918;8.614;2024-03-08T07:19:22;15.16;51.83
77056;SHT30;67471;44.918;8.614;2024-03-08T07:22:26;15.94;49.47
77056;SHT30;67471;44.918;8.614;2024-03-08T07:25:30;14.84;51.80
77056;SHT30;67471;44.918;8.614;2024-03-08T07:28:34;13.89;54.58
77056;SHT30;67471;44.918;8.614;2024-03-08T07:31:38;15.43;51.85
77056;SHT30;67471;44.918;8.614;2024-03-08T07:34:45;17.26;47.50
77056;SHT30;67471;44.918;8.614;2024-03-08T07:37:49;18.60;43.82
77056;SHT30;67471;44.918;8.614;2024-03-08T07:40:53;17.83;44.29
77056;SHT30;67471;44.918;8.614;2024-03-08T07:43:57;17.68;45.82
77056;SHT30;67471;44.918;8.614;2024-03-08T07:47:01;17.03;46.85
77056;SHT30;67471;44.918;8.614;2024-03-08T07:50:05;15.57;50.44
77056;SHT30;67471;44.918;8.614;2024-03-08T07:53:11;14.57;53.42
77056;SHT30;67471;44.918;8.614;2024-03-08T07:56:16;13.75;56.53
77056;SHT30;67471;44.918;8.614;2024-03-08T07:59:21;13.21;58.41
77056;SHT30;67471;44.918;8.614;2024-03-08T08:02:25;12.83;59.72
77056;SHT30;67471;44.918;8.614;2024-03-08T08:05:29;12.50;60.51
77056;SHT30;67471;44.918;8.614;2024-03-08T08:08:32;12.28;61.32
77056;SHT30;67471;44.918;8.614;2024-03-08T08:11:36;12.08;62.18
77056;SHT30;67471;44.918;8.614;2024-03-08T08:14:40;12.21;62.28
77056;SHT30;67471;44.918;8.614;2024-03-08T08:17:44;12.86;61.23
77056;SHT30;67471;44.918;8.614;2024-03-08T08:20:48;13.65;58.86
77056;SHT30;67471;44.918;8.614;2024-03-08T08:23:52;15.39;54.53
77056;SHT30;67471;44.918;8.614;2024-03-08T08:26:56;16.90;50.07
77056;SHT30;67471;44.918;8.614;2024-03-08T08:29:59;18.10;47.38
77056;SHT30;67471;44.918;8.614;2024-03-08T08:33:04;18.83;45.60
77056;SHT30;67471;44.918;8.614;2024-03-08T08:36:08;18.83;45.51
77056;SHT30;67471;44.918;8.614;2024-03-08T08:39:13;18.89;45.62
77056;SHT30;67471;44.918;8.614;2024-03-08T08:42:16;19.01;46.26
77056;SHT30;67471;44.918;8.614;2024-03-08T08:45:21;18.41;47.22
77056;SHT30;67471;44.918;8.614;2024-03-08T08:48:25;17.62;49.03
77056;SHT30;67471;44.918;8.614;2024-03-08T08:51:29;17.11;50.34
77056;SHT30;67471;44.918;8.614;2024-03-08T08:54:32;16.72;51.85
77056;SHT30;67471;44.918;8.614;2024-03-08T08:57:36;16.31;53.64
77056;SHT30;67471;44.918;8.614;2024-03-08T09:00:40;16.26;54.21
77056;SHT30;67471;44.918;8.614;2024-03-08T09:03:44;16.21;54.32
77056;SHT30;67471;44.918;8.614;2024-03-08T09:06:50;15.94;55.55
77056;SHT30;67471;44.918;8.614;2024-03-08T09:09:54;15.54;57.35
77056;SHT30;67471;44.918;8.614;2024-03-08T09:13:01;14.75;59.75
77056;SHT30;67471;44.918;8.614;2024-03-08T09:16:07;14.30;61.13
77056;SHT30;67471;44.918;8.614;2024-03-08T09:19:14;14.40;61.58
77056;SHT30;67471;44.918;8.614;2024-03-08T09:22:18;14.64;61.55
77056;SHT30;67471;44.918;8.614;2024-03-08T09:25:22;15.30;60.02
77056;SHT30;67471;44.918;8.614;2024-03-08T09:28:26;16.22;57.52
77056;SHT30;67471;44.918;8.614;2024-03-08T09:31:30;16.59;56.03
77056;SHT30;67471;44.918;8.614;2024-03-08T09:34:34;16.65;55.42
77056;SHT30;67471;44.918;8.614;2024-03-08T09:37:38;16.44;56.15
77056;SHT30;67471;44.918;8.614;2024-03-08T09:40:42;16.07;57.40
77056;SHT30;67471;44.918;8.614;2024-03-08T09:43:46;15.79;58.03
77056;SHT30;67471;44.918;8.614;2024-03-08T09:46:50;15.44;59.10
77056;SHT30;67471;44.918;8.614;2024-03-08T09:49:57;14.67;61.33
77056;SHT30;67471;44.918;8.614;2024-03-08T09:53:01;14.31;62.77
77056;SHT30;67471;44.918;8.614;2024-03-08T09:56:06;14.16;63.38
77056;SHT30;67471;44.918;8.614;2024-03-08T09:59:10;14.27;63.04
77056;SHT30;67471;44.918;8.614;2024-03-08T10:02:26;14.19;63.00
77056;SHT30;67471;44.918;8.614;2024-03-08T10:05:32;14.26;62.88
77056;SHT30;67471;44.918;8.614;2024-03-08T10:08:37;14.26;62.97
77056;SHT30;67471;44.918;8.614;2024-03-08T10:11:41;14.71;61.82
77056;SHT30;67471;44.918;8.614;2024-03-08T10:14:45;14.47;62.24
77056;SHT30;67471;44.918;8.614;2024-03-08T10:17:50;14.64;61.93
77056;SHT30;67471;44.918;8.614;2024-03-08T10:21:02;14.88;61.67
77056;SHT30;67471;44.918;8.614;2024-03-08T10:24:10;15.23;60.57
77056;SHT30;67471;44.918;8.614;2024-03-08T10:27:17;15.13;60.70
77056;SHT30;67471;44.918;8.614;2024-03-08T10:30:20;15.01;60.86
77056;SHT30;67471;44.918;8.614;2024-03-08T10:33:25;14.88;61.52
77056;SHT30;67471;44.918;8.614;2024-03-08T10:36:29;14.84;61.78
77056;SHT30;67471;44.918;8.614;2024-03-08T10:39:37;14.64;62.28
77056;SHT30;67471;44.918;8.614;2024-03-08T10:42:51;14.72;62.66
77056;SHT30;67471;44.918;8.614;2024-03-08T10:49:30;15.11;61.66
77056;SHT30;67471;44.918;8.614;2024-03-08T10:52:33;15.56;61.06
77056;SHT30;67471;44.918;8.614;2024-03-08T10:55:40;15.56;60.37
77056;SHT30;67471;44.918;8.614;2024-03-08T10:58:44;16.00;59.04
77056;SHT30;67471;44.918;8.614;2024-03-08T11:01:49;15.74;59.39
77056;SHT30;67471;44.918;8.614;2024-03-08T11:04:55;15.26;61.00
77056;SHT30;67471;44.918;8.614;2024-03-08T11:08:00;15.42;60.88
77056;SHT30;67471;44.918;8.614;2024-03-08T11:11:04;15.30;61.40
77056;SHT30;67471;44.918;8.614;2024-03-08T11:14:44;15.66;60.40
77056;SHT30;67471;44.918;8.614;2024-03-08T11:17:48;15.54;60.87
77056;SHT30;67471;44.918;8.614;2024-03-08T11:20:55;15.69;60.44
77056;SHT30;67471;44.918;8.614;2024-03-08T11:24:08;15.67;60.47
77056;SHT30;67471;44.918;8.614;2024-03-08T11:27:12;15.87;59.78
77056;SHT30;67471;44.918;8.614;2024-03-08T11:30:21;16.11;59.52
77056;SHT30;67471;44.918;8.614;2024-03-08T11:33:31;16.29;58.91
77056;SHT30;67471;44.918;8.614;2024-03-08T11:36:35;16.22;57.88
77056;SHT30;67471;44.918;8.614;2024-03-08T11:39:52;16.31;56.93
77056;SHT30;67471;44.918;8.614;2024-03-08T11:42:56;16.39;56.23
77056;SHT30;67471;44.918;8.614;2024-03-08T11:46:19;16.33;55.72
77056;SHT30;67471;44.918;8.614;2024-03-08T11:49:23;16.08;56.16
77056;SHT30;67471;44.918;8.614;2024-03-08T11:52:26;16.25;55.81
77056;SHT30;67471;44.918;8.614;2024-03-08T11:55:33;16.24;56.15
77056;SHT30;67471;44.918;8.614;2024-03-08T11:58:39;16.14;56.43
77056;SHT30;67471;44.918;8.614;2024-03-08T12:01:58;16.11;56.64
77056;SHT30;67471;44.918;8.614;2024-03-08T12:05:02;16.15;57.15
77056;SHT30;67471;44.918;8.614;2024-03-08T12:08:19;16.00;57.91
77056;SHT30;67471;44.918;8.614;2024-03-08T12:11:23;15.66;59.24
77056;SHT30;67471;44.918;8.614;2024-03-08T12:14:27;15.40;60.16
77056;SHT30;67471;44.918;8.614;2024-03-08T12:17:31;15.23;60.61
77056;SHT30;67471;44.918;8.614;2024-03-08T12:20:37;15.23;60.94
77056;SHT30;67471;44.918;8.614;2024-03-08T12:23:42;15.16;60.97
77056;SHT30;67471;44.918;8.614;2024-03-08T12:26:47;14.96;60.76
77056;SHT30;67471;44.918;8.614;2024-03-08T12:29:54;14.88;61.16
77056;SHT30;67471;44.918;8.614;2024-03-08T12:33:00;14.91;61.26
77056;SHT30;67471;44.918;8.614;2024-03-08T12:36:04;14.82;61.92
77056;SHT30;67471;44.918;8.614;2024-03-08T12:39:11;14.74;62.45
77056;SHT30;67471;44.918;8.614;2024-03-08T12:42:15;14.45;62.58
77056;SHT30;67471;44.918;8.614;2024-03-08T12:45:19;14.44;62.31
77056;SHT30;67471;44.918;8.614;2024-03-08T12:48:25;14.38;62.63
77056;SHT30;67471;44.918;8.614;2024-03-08T12:51:29;14.26;63.07
77056;SHT30;67471;44.918;8.614;2024-03-08T12:54:33;14.19;63.52
77056;SHT30;67471;44.918;8.614;2024-03-08T12:57:38;13.78;64.45
77056;SHT30;67471;44.918;8.614;2024-03-08T13:00:42;13.92;64.68
77056;SHT30;67471;44.918;8.614;2024-03-08T13:03:46;13.99;64.94
77056;SHT30;67471;44.918;8.614;2024-03-08T13:06:53;13.96;65.45
77056;SHT30;67471;44.918;8.614;2024-03-08T13:09:57;13.92;66.07
77056;SHT30;67471;44.918;8.614;2024-03-08T13:13:03;13.83;66.86
77056;SHT30;67471;44.918;8.614;2024-03-08T13:16:08;13.80;67.49
77056;SHT30;67471;44.918;8.614;2024-03-08T13:19:12;13.79;67.21
77056;SHT30;67471;44.918;8.614;2024-03-08T13:22:15;13.73;67.40
77056;SHT30;67471;44.918;8.614;2024-03-08T13:25:20;13.31;67.50
77056;SHT30;67471;44.918;8.614;2024-03-08T13:28:24;12.79;68.20
77056;SHT30;67471;44.918;8.614;2024-03-08T13:31:33;13.01;68.35
77056;SHT30;67471;44.918;8.614;2024-03-08T13:34:43;12.73;68.74
77056;SHT30;67471;44.918;8.614;2024-03-08T13:37:48;12.86;68.60
77056;SHT30;67471;44.918;8.614;2024-03-08T13:40:52;12.91;68.71
77056;SHT30;67471;44.918;8.614;2024-03-08T13:43:56;12.84;68.97
77056;SHT30;67471;44.918;8.614;2024-03-08T13:47:00;13.04;68.50
77056;SHT30;67471;44.918;8.614;2024-03-08T13:50:04;13.10;68.35
77056;SHT30;67471;44.918;8.614;2024-03-08T13:53:10;13.32;67.74
77056;SHT30;67471;44.918;8.614;2024-03-08T13:56:14;13.11;68.70
77056;SHT30;67471;44.918;8.614;2024-03-08T13:59:18;13.28;68.72
77056;SHT30;67471;44.918;8.614;2024-03-08T14:02:22;13.34;68.62
77056;SHT30;67471;44.918;8.614;2024-03-08T14:05:28;13.21;69.30
77056;SHT30;67471;44.918;8.614;2024-03-08T14:08:33;13.00;69.96
77056;SHT30;67471;44.918;8.614;2024-03-08T14:11:37;13.15;69.22
77056;SHT30;67471;44.918;8.614;2024-03-08T14:14:41;13.15;68.94
77056;SHT30;67471;44.918;8.614;2024-03-08T14:17:52;13.24;68.84
77056;SHT30;67471;44.918;8.614;2024-03-08T14:20:56;13.37;68.49
77056;SHT30;67471;44.918;8.614;2024-03-08T14:24:00;13.06;68.52
77056;SHT30;67471;44.918;8.614;2024-03-08T14:27:05;12.97;69.01
77056;SHT30;67471;44.918;8.614;2024-03-08T14:30:12;13.06;68.87
77056;SHT30;67471;44.918;8.614;2024-03-08T14:33:16;12.93;69.10
77056;SHT30;67471;44.918;8.614;2024-03-08T14:36:20;12.99;69.47
77056;SHT30;67471;44.918;8.614;2024-03-08T14:39:24;12.79;70.04
77056;SHT30;67471;44.918;8.614;2024-03-08T14:42:30;12.62;69.85
77056;SHT30;67471;44.918;8.614;2024-03-08T14:45:33;12.63;70.60
77056;SHT30;67471;44.918;8.614;2024-03-08T14:48:38;12.28;71.93
77056;SHT30;67471;44.918;8.614;2024-03-08T14:51:42;12.21;72.94
77056;SHT30;67471;44.918;8.614;2024-03-08T14:54:46;12.25;72.71
77056;SHT30;67471;44.918;8.614;2024-03-08T14:57:49;12.06;73.56
77056;SHT30;67471;44.918;8.614;2024-03-08T15:00:54;11.82;73.80
77056;SHT30;67471;44.918;8.614;2024-03-08T15:03:59;11.53;75.58
77056;SHT30;67471;44.918;8.614;2024-03-08T15:07:11;11.78;76.58
77056;SHT30;67471;44.918;8.614;2024-03-08T15:10:15;11.92;75.50
77056;SHT30;67471;44.918;8.614;2024-03-08T15:13:20;12.12;75.38
77056;SHT30;67471;44.918;8.614;2024-03-08T15:16:26;12.15;74.87
77056;SHT30;67471;44.918;8.614;2024-03-08T15:19:30;12.25;74.72
77056;SHT30;67471;44.918;8.614;2024-03-08T15:22:33;12.10;73.30
77056;SHT30;67471;44.918;8.614;2024-03-08T15:25:37;11.99;73.35
77056;SHT30;67471;44.918;8.614;2024-03-08T15:28:43;12.18;74.26
77056;SHT30;67471;44.918;8.614;2024-03-08T15:31:49;12.18;74.12
77056;SHT30;67471;44.918;8.614;2024-03-08T15:34:55;12.02;73.17
77056;SHT30;67471;44.918;8.614;2024-03-08T15:38:00;11.63;74.93
77056;SHT30;67471;44.918;8.614;2024-03-08T15:41:04;11.53;75.07
77056;SHT30;67471;44.918;8.614;2024-03-08T15:44:16;11.37;75.96
77056;SHT30;67471;44.918;8.614;2024-03-08T15:47:19;11.46;75.94
77056;SHT30;67471;44.918;8.614;2024-03-08T15:50:25;11.44;75.25
77056;SHT30;67471;44.918;8.614;2024-03-08T15:53:29;10.99;77.78
77056;SHT30;67471;44.918;8.614;2024-03-08T15:56:35;10.85;79.29
77056;SHT30;67471;44.918;8.614;2024-03-08T15:59:39;10.79;79.29
77056;SHT30;67471;44.918;8.614;2024-03-08T16:02:43;10.86;79.44
77056;SHT30;67471;44.918;8.614;2024-03-08T16:05:47;10.99;79.10
77056;SHT30;67471;44.918;8.614;2024-03-08T16:08:52;10.83;79.73
77056;SHT30;67471;44.918;8.614;2024-03-08T16:11:57;10.88;79.28
77056;SHT30;67471;44.918;8.614;2024-03-08T16:15:01;10.92;79.58
77056;SHT30;67471;44.918;8.614;2024-03-08T16:18:05;10.79;79.64
77056;SHT30;67471;44.918;8.614;2024-03-08T16:21:10;10.95;79.25
77056;SHT30;67471;44.918;8.614;2024-03-08T16:24:15;10.78;79.64
77056;SHT30;67471;44.918;8.614;2024-03-08T16:27:19;10.89;79.19
77056;SHT30;67471;44.918;8.614;2024-03-08T16:30:24;10.55;80.48
77056;SHT30;67471;44.918;8.614;2024-03-08T16:33:27;10.38;80.93
77056;SHT30;67471;44.918;8.614;2024-03-08T16:36:31;10.45;81.71
77056;SHT30;67471;44.918;8.614;2024-03-08T16:39:35;10.40;82.08
77056;SHT30;67471;44.918;8.614;2024-03-08T16:42:39;10.31;82.42
77056;SHT30;67471;44.918;8.614;2024-03-08T16:45:43;10.41;82.21
77056;SHT30;67471;44.918;8.614;2024-03-08T16:48:47;10.72;81.76
77056;SHT30;67471;44.918;8.614;2024-03-08T16:51:51;10.86;81.32
77056;SHT30;67471;44.918;8.614;2024-03-08T16:54:55;10.58;81.98
77056;SHT30;67471;44.918;8.614;2024-03-08T16:57:59;10.57;81.67
77056;SHT30;67471;44.918;8.614;2024-03-08T17:01:03;10.41;81.86
77056;SHT30;67471;44.918;8.614;2024-03-08T17:04:07;10.62;82.06
77056;SHT30;67471;44.918;8.614;2024-03-08T17:07:11;10.67;81.84
77056;SHT30;67471;44.918;8.614;2024-03-08T17:10:15;10.73;81.31
77056;SHT30;67471;44.918;8.614;2024-03-08T17:13:22;10.60;82.17
77056;SHT30;67471;44.918;8.614;2024-03-08T17:16:26;10.88;81.22
77056;SHT30;67471;44.918;8.614;2024-03-08T17:19:30;10.92;80.93
77056;SHT30;67471;44.918;8.614;2024-03-08T17:22:34;10.89;80.59
77056;SHT30;67471;44.918;8.614;2024-03-08T17:25:38;10.93;80.97
77056;SHT30;67471;44.918;8.614;2024-03-08T17:28:43;10.95;80.92
77056;SHT30;67471;44.918;8.614;2024-03-08T17:31:47;10.57;82.14
77056;SHT30;67471;44.918;8.614;2024-03-08T17:34:53;10.73;81.51
77056;SHT30;67471;44.918;8.614;2024-03-08T17:37:58;10.65;82.21
77056;SHT30;67471;44.918;8.614;2024-03-08T17:41:02;10.42;82.59
77056;SHT30;67471;44.918;8.614;2024-03-08T17:44:06;10.18;84.12
77056;SHT30;67471;44.918;8.614;2024-03-08T17:47:12;10.25;84.43
77056;SHT30;67471;44.918;8.614;2024-03-08T17:50:17;10.44;84.00
77056;SHT30;67471;44.918;8.614;2024-03-08T17:53:21;10.60;83.50
77056;SHT30;67471;44.918;8.614;2024-03-08T17:56:25;10.71;82.94
77056;SHT30;67471;44.918;8.614;2024-03-08T17:59:29;10.57;83.61
77056;SHT30;67471;44.918;8.614;2024-03-08T18:02:33;10.58;83.16
77056;SHT30;67471;44.918;8.614;2024-03-08T18:05:38;10.69;83.05
77056;SHT30;67471;44.918;8.614;2024-03-08T18:08:45;10.79;82.92
77056;SHT30;67471;44.918;8.614;2024-03-08T18:11:49;10.55;83.56
77056;SHT30;67471;44.918;8.614;2024-03-08T18:14:54;10.52;83.83
77056;SHT30;67471;44.918;8.614;2024-03-08T18:17:58;10.72;83.55
77056;SHT30;67471;44.918;8.614;2024-03-08T18:21:02;10.76;83.46
77056;SHT30;67471;44.918;8.614;2024-03-08T18:24:08;10.79;83.44
77056;SHT30;67471;44.918;8.614;2024-03-08T18:27:12;10.58;84.05
77056;SHT30;67471;44.918;8.614;2024-03-08T18:30:16;10.57;83.66
77056;SHT30;67471;44.918;8.614;2024-03-08T18:33:20;10.58;84.02
77056;SHT30;67471;44.918;8.614;2024-03-08T18:36:24;10.64;83.95
77056;SHT30;67471;44.918;8.614;2024-03-08T18:39:28;10.47;84.45
77056;SHT30;67471;44.918;8.614;2024-03-08T18:42:31;10.61;83.99
77056;SHT30;67471;44.918;8.614;2024-03-08T18:45:36;10.58;83.68
77056;SHT30;67471;44.918;8.614;2024-03-08T18:48:41;10.51;84.16
77056;SHT30;67471;44.918;8.614;2024-03-08T18:51:45;10.47;84.16
77056;SHT30;67471;44.918;8.614;2024-03-08T18:54:49;10.50;83.95
77056;SHT30;67471;44.918;8.614;2024-03-08T18:57:52;10.34;84.01
77056;SHT30;67471;44.918;8.614;2024-03-08T19:00:56;10.24;84.58
77056;SHT30;67471;44.918;8.614;2024-03-08T19:04:00;10.20;84.73
77056;SHT30;67471;44.918;8.614;2024-03-08T19:07:04;9.99;84.85
77056;SHT30;67471;44.918;8.614;2024-03-08T19:10:09;9.87;85.43
77056;SHT30;67471;44.918;8.614;2024-03-08T19:13:15;9.83;85.36
77056;SHT30;67471;44.918;8.614;2024-03-08T19:16:19;9.85;85.47
77056;SHT30;67471;44.918;8.614;2024-03-08T19:19:24;9.83;85.47
77056;SHT30;67471;44.918;8.614;2024-03-08T19:22:27;9.73;86.14
77056;SHT30;67471;44.918;8.614;2024-03-08T19:25:32;9.59;86.31
77056;SHT30;67471;44.918;8.614;2024-03-08T19:28:36;9.45;86.84
77056;SHT30;67471;44.918;8.614;2024-03-08T19:31:40;9.31;86.75
77056;SHT30;67471;44.918;8.614;2024-03-08T19:34:44;9.39;86.81
77056;SHT30;67471;44.918;8.614;2024-03-08T19:37:49;9.36;86.76
77056;SHT30;67471;44.918;8.614;2024-03-08T19:40:54;9.15;87.49